createdAt,value
2018-08-25T00:00:34.321Z,19.61
2018-08-25T00:03:04.269Z,19.63
2018-08-25T00:05:34.025Z,19.73
2018-08-25T00:08:04.157Z,19.67
2018-08-25T00:10:34.242Z,19.61
2018-08-25T00:13:03.927Z,19.66
2018-08-25T00:15:34.346Z,19.73
2018-08-25T00:18:04.653Z,19.75
2018-08-25T00:20:34.380Z,19.76
2018-08-25T00:23:05.182Z,19.70
2018-08-25T00:25:35.404Z,19.67
2018-08-25T00:28:05.150Z,19.53
2018-08-25T00:30:39.749Z,19.60
2018-08-25T00:33:10.352Z,19.65
2018-08-25T00:35:39.945Z,19.62
2018-08-25T00:38:10.726Z,19.55
2018-08-25T00:40:41.241Z,19.52
2018-08-25T00:43:11.048Z,19.50
2018-08-25T00:45:41.520Z,19.44
2018-08-25T00:48:11.439Z,19.45
2018-08-25T00:50:41.528Z,19.40
2018-08-25T00:53:11.437Z,19.43
2018-08-25T00:55:42.163Z,19.39
2018-08-25T00:58:11.869Z,19.45
2018-08-25T01:00:42.501Z,19.41
2018-08-25T01:03:12.143Z,19.29
2018-08-25T01:05:41.764Z,19.39
2018-08-25T01:08:12.543Z,19.36
2018-08-25T01:10:42.488Z,19.38
2018-08-25T01:13:12.463Z,19.36
2018-08-25T01:15:43.018Z,19.32
2018-08-25T01:18:13.325Z,19.29
2018-08-25T01:20:43.366Z,19.29
2018-08-25T01:23:13.030Z,19.32
2018-08-25T01:25:43.206Z,19.25
2018-08-25T01:28:14.096Z,19.21
2018-08-25T01:30:43.873Z,19.26
2018-08-25T01:33:13.333Z,19.27
2018-08-25T01:35:43.117Z,19.25
2018-08-25T01:38:12.621Z,19.33
2018-08-25T01:40:42.459Z,19.27
2018-08-25T01:43:12.925Z,19.18
2018-08-25T01:45:43.811Z,19.00
2018-08-25T01:48:13.418Z,19.06
2018-08-25T01:50:43.654Z,19.09
2018-08-25T01:53:13.302Z,19.05
2018-08-25T01:55:42.972Z,19.04
2018-08-25T01:58:12.648Z,18.93
2018-08-25T02:00:42.866Z,18.91
2018-08-25T02:03:12.741Z,18.91
2018-08-25T02:05:42.656Z,18.85
2018-08-25T02:08:12.586Z,18.75
2018-08-25T02:10:42.562Z,18.83
2018-08-25T02:13:12.385Z,18.81
2018-08-25T02:15:42.433Z,18.74
2018-08-25T02:18:12.263Z,18.80
2018-08-25T02:20:42.255Z,18.75
2018-08-25T02:23:11.719Z,18.70
2018-08-25T02:25:41.563Z,18.75
2018-08-25T02:28:10.975Z,18.66
2018-08-25T02:30:40.445Z,18.65
2018-08-25T02:33:10.543Z,18.58
2018-08-25T02:35:40.029Z,18.50
2018-08-25T02:38:09.899Z,18.53
2018-08-25T02:40:39.806Z,18.48
2018-08-25T02:43:09.398Z,18.52
2018-08-25T02:45:38.959Z,18.48
2018-08-25T02:48:09.411Z,18.60
2018-08-25T02:50:39.157Z,18.50
2018-08-25T02:53:08.802Z,18.42
2018-08-25T02:55:39.073Z,18.37
2018-08-25T02:58:08.946Z,18.29
2018-08-25T03:00:38.580Z,18.36
2018-08-25T03:03:08.301Z,18.33
2018-08-25T03:05:37.784Z,18.33
2018-08-25T03:08:07.281Z,18.32
2018-08-25T03:10:37.063Z,18.23
2018-08-25T03:13:06.931Z,18.26
2018-08-25T03:15:36.671Z,18.21
2018-08-25T03:18:06.552Z,18.11
2018-08-25T03:20:36.454Z,18.13
2018-08-25T03:23:06.172Z,18.12
2018-08-25T03:25:35.631Z,18.13
2018-08-25T03:28:05.214Z,18.08
2018-08-25T03:30:34.873Z,18.13
2018-08-25T03:33:05.019Z,18.06
2018-08-25T03:35:34.558Z,18.07
2018-08-25T03:38:03.901Z,18.01
2018-08-25T03:40:33.946Z,18.01
2018-08-25T03:43:03.719Z,17.97
2018-08-25T03:45:33.297Z,17.91
2018-08-25T03:48:03.150Z,18.00
2018-08-25T03:50:32.889Z,17.96
2018-08-25T03:53:02.433Z,17.95
2018-08-25T03:55:32.540Z,17.91
2018-08-25T03:58:02.296Z,17.88
2018-08-25T04:00:31.999Z,17.89
2018-08-25T04:03:01.965Z,17.92
2018-08-25T04:05:31.399Z,17.91
2018-08-25T04:08:01.154Z,17.87
2018-08-25T04:10:31.769Z,17.78
2018-08-25T04:13:01.713Z,17.83
2018-08-25T04:15:31.638Z,17.92
2018-08-25T04:18:01.861Z,17.94
2018-08-25T04:20:31.451Z,17.94
2018-08-25T04:23:01.116Z,17.94
2018-08-25T04:25:31.180Z,17.93
2018-08-25T04:28:01.096Z,17.94
2018-08-25T04:30:31.012Z,17.93
2018-08-25T04:33:00.730Z,17.94
2018-08-25T04:35:30.229Z,17.96
2018-08-25T04:38:00.230Z,18.01
2018-08-25T04:40:29.819Z,18.05
2018-08-25T04:42:59.459Z,18.13
2018-08-25T04:45:28.897Z,18.15
2018-08-25T04:47:58.577Z,18.18
2018-08-25T04:50:28.297Z,18.31
2018-08-25T04:52:58.322Z,18.36
2018-08-25T04:55:28.037Z,18.20
2018-08-25T04:57:57.617Z,18.31
2018-08-25T05:00:27.597Z,18.39
2018-08-25T05:02:57.180Z,18.45
2018-08-25T05:05:26.705Z,18.52
2018-08-25T05:07:57.094Z,18.55
2018-08-25T05:10:26.901Z,18.67
2018-08-25T05:12:56.273Z,18.68
2018-08-25T05:15:25.806Z,18.74
2018-08-25T05:17:55.524Z,18.77
2018-08-25T05:20:25.396Z,18.83
2018-08-25T05:22:55.469Z,18.81
2018-08-25T05:25:25.064Z,18.88
2018-08-25T05:27:54.744Z,18.97
2018-08-25T05:30:24.656Z,19.09
2018-08-25T05:32:54.600Z,19.19
2018-08-25T05:35:24.207Z,19.31
2018-08-25T05:37:54.049Z,19.30
2018-08-25T05:40:23.627Z,19.23
2018-08-25T05:42:53.117Z,19.23
2018-08-25T05:45:23.174Z,19.23
2018-08-25T05:47:52.631Z,19.21
2018-08-25T05:50:22.018Z,19.29
2018-08-25T05:52:52.172Z,19.37
2018-08-25T05:55:21.798Z,19.49
2018-08-25T05:57:51.310Z,19.63
2018-08-25T06:00:20.838Z,19.79
2018-08-25T06:02:50.599Z,19.93
2018-08-25T06:05:20.235Z,20.10
2018-08-25T06:07:50.058Z,20.14
2018-08-25T06:10:19.745Z,20.11
2018-08-25T06:12:49.375Z,20.05
2018-08-25T06:15:18.785Z,20.08
2018-08-25T06:17:48.438Z,19.92
2018-08-25T06:20:18.701Z,19.86
2018-08-25T06:22:49.141Z,19.91
2018-08-25T06:25:18.630Z,19.97
2018-08-25T06:27:48.276Z,20.10
2018-08-25T06:30:18.252Z,20.30
2018-08-25T06:32:47.745Z,20.54
2018-08-25T06:35:17.050Z,20.59
2018-08-25T06:37:46.810Z,20.58
2018-08-25T06:40:16.327Z,20.52
2018-08-25T06:42:45.903Z,20.75
2018-08-25T06:45:15.292Z,20.89
2018-08-25T06:47:44.902Z,20.97
2018-08-25T06:50:14.449Z,21.13
2018-08-25T06:52:44.737Z,21.15
2018-08-25T06:55:14.340Z,21.13
2018-08-25T06:57:43.912Z,21.45
2018-08-25T07:00:13.887Z,21.46
2018-08-25T07:02:43.671Z,21.40
2018-08-25T07:05:13.410Z,21.43
2018-08-25T07:07:43.331Z,21.42
2018-08-25T07:10:13.116Z,21.43
2018-08-25T07:12:42.876Z,21.48
2018-08-25T07:15:12.891Z,21.60
2018-08-25T07:17:42.570Z,21.56
2018-08-25T07:20:12.167Z,21.66
2018-08-25T07:22:42.465Z,21.79
2018-08-25T07:25:12.088Z,21.73
2018-08-25T07:27:41.698Z,21.65
2018-08-25T07:30:11.648Z,21.86
2018-08-25T07:32:41.434Z,21.95
2018-08-25T07:35:11.147Z,22.07
2018-08-25T07:37:41.193Z,22.07
2018-08-25T07:40:10.750Z,22.25
2018-08-25T07:42:40.464Z,22.36
2018-08-25T07:45:10.815Z,22.45
2018-08-25T07:47:40.533Z,22.56
2018-08-25T07:50:10.633Z,22.40
2018-08-25T07:52:40.516Z,22.48
2018-08-25T07:55:10.427Z,22.48
2018-08-25T07:57:47.673Z,22.62
2018-08-25T08:00:17.281Z,22.67
2018-08-25T08:02:47.270Z,22.79
2018-08-25T08:05:16.787Z,22.89
2018-08-25T08:07:46.194Z,23.14
2018-08-25T08:10:15.639Z,22.97
2018-08-25T08:12:45.426Z,22.91
2018-08-25T08:15:15.204Z,22.93
2018-08-25T08:17:45.026Z,23.08
2018-08-25T08:20:14.668Z,23.27
2018-08-25T08:22:44.334Z,23.35
2018-08-25T08:25:14.974Z,23.50
2018-08-25T08:27:44.859Z,23.56
2018-08-25T08:30:14.461Z,23.87
2018-08-25T08:32:44.457Z,23.61
2018-08-25T08:35:13.850Z,23.57
2018-08-25T08:37:43.346Z,23.52
2018-08-25T08:40:13.346Z,23.54
2018-08-25T08:42:43.202Z,23.48
2018-08-25T08:45:13.078Z,23.67
2018-08-25T08:47:43.379Z,23.78
2018-08-25T08:50:13.372Z,23.84
2018-08-25T08:52:43.127Z,24.06
2018-08-25T08:55:13.113Z,24.25
2018-08-25T08:57:42.977Z,24.35
2018-08-25T09:00:12.909Z,24.43
2018-08-25T09:02:43.140Z,24.47
2018-08-25T09:05:12.940Z,24.52
2018-08-25T09:07:42.926Z,24.66
2018-08-25T09:10:13.463Z,24.81
2018-08-25T09:12:43.081Z,24.92
2018-08-25T09:15:12.908Z,25.08
2018-08-25T09:17:42.931Z,25.22
2018-08-25T09:20:12.543Z,25.25
2018-08-25T09:22:42.449Z,25.33
2018-08-25T09:25:12.377Z,25.34
2018-08-25T09:27:42.179Z,25.50
2018-08-25T09:30:18.245Z,25.67
2018-08-25T09:32:47.897Z,25.53
2018-08-25T09:35:17.238Z,25.71
2018-08-25T09:37:47.215Z,26.00
2018-08-25T09:40:16.512Z,26.09
2018-08-25T09:42:46.277Z,25.58
2018-08-25T09:45:16.227Z,25.64
2018-08-25T09:47:45.747Z,25.66
2018-08-25T09:50:15.357Z,26.06
2018-08-25T09:52:45.481Z,26.13
2018-08-25T09:55:15.029Z,26.01
2018-08-25T09:57:44.660Z,25.27
2018-08-25T10:00:14.499Z,25.33
2018-08-25T10:02:44.389Z,25.20
2018-08-25T10:05:14.052Z,25.28
2018-08-25T10:07:44.124Z,25.38
2018-08-25T10:10:13.702Z,25.71
2018-08-25T10:12:43.211Z,26.12
2018-08-25T10:15:13.091Z,26.28
2018-08-25T10:17:42.633Z,26.27
2018-08-25T10:20:12.352Z,26.38
2018-08-25T10:22:42.547Z,26.59
2018-08-25T10:25:12.066Z,27.13
2018-08-25T10:27:41.826Z,27.57
2018-08-25T10:30:12.173Z,27.31
2018-08-25T10:32:42.035Z,27.36
2018-08-25T10:35:11.623Z,27.64
2018-08-25T10:37:41.815Z,27.71
2018-08-25T10:40:11.554Z,27.19
2018-08-25T10:42:41.261Z,27.12
2018-08-25T10:45:10.883Z,27.09
2018-08-25T10:47:40.909Z,26.99
2018-08-25T10:50:10.509Z,26.83
2018-08-25T10:52:40.175Z,27.21
2018-08-25T10:55:09.924Z,27.85
2018-08-25T10:57:39.689Z,28.28
2018-08-25T11:00:09.836Z,28.66
2018-08-25T11:02:39.769Z,28.76
2018-08-25T11:05:09.481Z,28.87
2018-08-25T11:07:39.286Z,28.94
2018-08-25T11:10:09.025Z,28.79
2018-08-25T11:12:38.627Z,28.79
2018-08-25T11:15:08.879Z,28.62
2018-08-25T11:17:38.574Z,28.90
2018-08-25T11:20:08.057Z,28.95
2018-08-25T11:22:37.890Z,28.99
2018-08-25T11:25:07.491Z,29.16
2018-08-25T11:27:37.093Z,29.42
2018-08-25T11:30:07.121Z,29.69
2018-08-25T11:32:36.913Z,29.61
2018-08-25T11:35:07.471Z,29.45
2018-08-25T11:37:37.625Z,29.51
2018-08-25T11:40:07.299Z,29.81
2018-08-25T11:42:36.898Z,29.92
2018-08-25T11:45:07.037Z,29.79
2018-08-25T11:47:36.398Z,29.47
2018-08-25T11:50:06.599Z,29.65
2018-08-25T11:52:36.684Z,29.31
2018-08-25T11:55:06.493Z,28.79
2018-08-25T11:57:35.974Z,28.15
2018-08-25T12:00:06.481Z,27.83
2018-08-25T12:02:36.226Z,27.57
2018-08-25T12:05:05.938Z,27.21
2018-08-25T12:07:35.766Z,27.14
2018-08-25T12:10:05.366Z,26.81
2018-08-25T12:12:34.757Z,26.63
2018-08-25T12:15:04.910Z,26.33
2018-08-25T12:17:34.402Z,26.21
2018-08-25T12:20:04.204Z,26.00
2018-08-25T12:22:34.178Z,25.80
2018-08-25T12:25:03.925Z,25.67
2018-08-25T12:27:33.848Z,25.48
2018-08-25T12:30:03.916Z,25.41
2018-08-25T12:32:33.470Z,25.35
2018-08-25T12:35:02.904Z,25.50
2018-08-25T12:37:32.482Z,25.40
2018-08-25T12:40:02.693Z,25.49
2018-08-25T12:42:32.893Z,25.58
2018-08-25T12:45:02.808Z,25.45
2018-08-25T12:47:32.204Z,25.17
2018-08-25T12:50:01.954Z,25.20
2018-08-25T12:52:32.108Z,25.29
2018-08-25T12:55:01.584Z,25.43
2018-08-25T12:57:31.446Z,25.07
2018-08-25T13:00:01.335Z,24.93
2018-08-25T13:02:31.163Z,24.72
2018-08-25T13:05:00.935Z,24.61
2018-08-25T13:07:31.335Z,24.64
2018-08-25T13:10:01.336Z,24.82
2018-08-25T13:12:31.115Z,25.09
2018-08-25T13:15:00.971Z,25.54
2018-08-25T13:17:30.816Z,25.82
2018-08-25T13:20:00.417Z,25.93
2018-08-25T13:22:30.761Z,25.90
2018-08-25T13:25:00.552Z,25.85
2018-08-25T13:27:30.098Z,25.67
2018-08-25T13:30:00.407Z,26.01
2018-08-25T13:32:32.923Z,26.06
2018-08-25T13:35:02.549Z,26.08
2018-08-25T13:37:32.242Z,26.26
2018-08-25T13:40:03.382Z,26.48
2018-08-25T13:42:32.689Z,27.00
2018-08-25T13:45:02.646Z,27.31
2018-08-25T13:47:33.008Z,27.55
2018-08-25T13:50:02.497Z,27.34
2018-08-25T13:52:32.344Z,26.94
2018-08-25T13:55:02.481Z,26.55
2018-08-25T13:57:32.029Z,26.28
2018-08-25T14:00:01.807Z,26.09
2018-08-25T14:02:32.140Z,26.05
2018-08-25T14:05:02.095Z,25.67
2018-08-25T14:07:31.578Z,25.51
2018-08-25T14:10:01.507Z,25.35
2018-08-25T14:12:31.283Z,25.17
2018-08-25T14:15:00.943Z,24.99
2018-08-25T14:17:30.968Z,24.85
2018-08-25T14:20:01.611Z,24.49
2018-08-25T14:22:31.282Z,24.41
2018-08-25T14:25:01.297Z,24.57
2018-08-25T14:27:31.045Z,24.73
2018-08-25T14:30:00.535Z,24.88
2018-08-25T14:32:30.367Z,24.99
2018-08-25T14:35:00.180Z,25.12
2018-08-25T14:37:29.887Z,25.22
2018-08-25T14:39:59.405Z,25.26
2018-08-25T14:42:29.204Z,25.26
2018-08-25T14:44:59.109Z,25.15
2018-08-25T14:47:29.222Z,25.14
2018-08-25T14:49:59.131Z,24.95
2018-08-25T14:52:28.889Z,24.83
2018-08-25T14:54:58.360Z,24.68
2018-08-25T14:57:28.336Z,24.47
2018-08-25T14:59:58.195Z,24.37
2018-08-25T15:02:28.134Z,24.35
2018-08-25T15:04:57.940Z,24.36
2018-08-25T15:07:27.634Z,24.42
2018-08-25T15:09:57.424Z,24.50
2018-08-25T15:12:27.042Z,24.57
2018-08-25T15:14:56.633Z,24.69
2018-08-25T15:17:26.408Z,24.73
2018-08-25T15:19:55.722Z,24.90
2018-08-25T15:22:25.244Z,25.27
2018-08-25T15:24:55.388Z,25.41
2018-08-25T15:27:25.024Z,25.58
2018-08-25T15:29:54.493Z,25.43
2018-08-25T15:32:24.778Z,25.53
2018-08-25T15:34:54.237Z,25.66
2018-08-25T15:37:23.862Z,25.82
2018-08-25T15:39:53.807Z,25.88
2018-08-25T15:42:23.783Z,25.98
2018-08-25T15:44:53.397Z,26.28
2018-08-25T15:47:23.668Z,26.46
2018-08-25T15:49:53.521Z,26.48
2018-08-25T15:52:23.067Z,26.71
2018-08-25T15:54:53.096Z,26.68
2018-08-25T15:57:22.829Z,26.31
2018-08-25T15:59:52.315Z,26.31
2018-08-25T16:02:22.308Z,26.18
2018-08-25T16:04:51.880Z,26.16
2018-08-25T16:07:22.174Z,26.41
2018-08-25T16:09:51.734Z,26.54
2018-08-25T16:12:22.097Z,26.61
2018-08-25T16:14:51.664Z,26.81
2018-08-25T16:17:21.262Z,26.66
2018-08-25T16:19:51.229Z,26.40
2018-08-25T16:22:21.007Z,26.19
2018-08-25T16:24:51.087Z,26.11
2018-08-25T16:27:20.522Z,25.78
2018-08-25T16:29:50.242Z,25.87
2018-08-25T16:32:20.521Z,25.80
2018-08-25T16:34:50.177Z,25.81
2018-08-25T16:37:19.663Z,25.73
2018-08-25T16:39:49.406Z,25.66
2018-08-25T16:42:18.798Z,25.58
2018-08-25T16:44:48.601Z,25.48
2018-08-25T16:47:18.478Z,25.43
2018-08-25T16:49:47.906Z,25.42
2018-08-25T16:52:17.523Z,25.38
2018-08-25T16:54:47.544Z,25.30
2018-08-25T16:57:17.789Z,25.14
2018-08-25T16:59:47.541Z,25.16
2018-08-25T17:02:17.176Z,25.25
2018-08-25T17:04:46.916Z,25.16
2018-08-25T17:07:16.285Z,25.02
2018-08-25T17:09:46.252Z,24.87
2018-08-25T17:12:15.864Z,24.74
2018-08-25T17:14:45.752Z,24.64
2018-08-25T17:17:15.601Z,24.47
2018-08-25T17:19:45.184Z,24.42
2018-08-25T17:22:14.904Z,24.43
2018-08-25T17:24:44.414Z,24.33
2018-08-25T17:27:14.029Z,24.15
2018-08-25T17:29:43.524Z,24.07
2018-08-25T17:32:13.342Z,24.01
2018-08-25T17:34:42.956Z,24.03
2018-08-25T17:37:12.856Z,24.08
2018-08-25T17:39:42.794Z,24.08
2018-08-25T17:42:12.305Z,24.09
2018-08-25T17:44:41.701Z,23.97
2018-08-25T17:47:11.176Z,23.88
2018-08-25T17:49:40.789Z,23.75
2018-08-25T17:52:10.415Z,23.81
2018-08-25T17:54:40.370Z,23.62
2018-08-25T17:57:10.364Z,23.56
2018-08-25T17:59:40.239Z,23.46
2018-08-25T18:02:10.270Z,23.40
2018-08-25T18:04:40.066Z,23.32
2018-08-25T18:07:09.631Z,23.35
2018-08-25T18:09:40.006Z,23.27
2018-08-25T18:12:09.517Z,23.13
2018-08-25T18:14:39.443Z,23.04
2018-08-25T18:17:09.548Z,23.01
2018-08-25T18:19:42.795Z,23.03
2018-08-25T18:22:13.101Z,23.06
2018-08-25T18:24:43.086Z,23.06
2018-08-25T18:27:12.489Z,23.08
2018-08-25T18:29:42.082Z,23.08
2018-08-25T18:32:12.109Z,22.98
2018-08-25T18:34:41.851Z,22.84
2018-08-25T18:37:11.962Z,22.86
2018-08-25T18:39:41.679Z,22.89
2018-08-25T18:42:11.464Z,22.87
2018-08-25T18:44:41.593Z,22.88
2018-08-25T18:47:11.506Z,22.86
2018-08-25T18:49:41.298Z,22.89
2018-08-25T18:52:11.280Z,22.81
2018-08-25T18:54:40.878Z,22.64
2018-08-25T18:57:10.660Z,22.65
2018-08-25T18:59:40.489Z,22.55
2018-08-25T19:02:10.136Z,22.51
2018-08-25T19:04:39.999Z,22.45
2018-08-25T19:07:10.034Z,22.52
2018-08-25T19:09:39.531Z,22.57
2018-08-25T19:12:09.088Z,22.57
2018-08-25T19:14:39.051Z,22.52
2018-08-25T19:17:08.663Z,22.45
2018-08-25T19:19:38.391Z,22.44
2018-08-25T19:22:08.207Z,22.33
2018-08-25T19:24:37.592Z,22.31
2018-08-25T19:27:07.415Z,22.24
2018-08-25T19:29:36.992Z,22.15
2018-08-25T19:32:06.719Z,22.12
2018-08-25T19:34:36.677Z,22.14
2018-08-25T19:37:06.709Z,22.17
2018-08-25T19:39:36.142Z,22.09
2018-08-25T19:42:05.887Z,22.05
2018-08-25T19:44:35.479Z,22.09
2018-08-25T19:47:05.535Z,21.99
2018-08-25T19:49:35.120Z,21.86
2018-08-25T19:52:05.650Z,21.87
2018-08-25T19:54:35.333Z,21.94
2018-08-25T19:57:05.261Z,21.89
2018-08-25T19:59:35.027Z,21.89
2018-08-25T20:02:04.810Z,21.61
2018-08-25T20:04:34.484Z,21.65
2018-08-25T20:07:03.998Z,21.63
2018-08-25T20:09:33.899Z,21.45
2018-08-25T20:12:03.401Z,21.38
2018-08-25T20:14:33.510Z,21.51
2018-08-25T20:17:03.511Z,21.59
2018-08-25T20:19:33.143Z,21.66
2018-08-25T20:22:03.249Z,21.57
2018-08-25T20:24:33.026Z,21.58
2018-08-25T20:27:02.651Z,21.58
2018-08-25T20:29:32.598Z,21.53
2018-08-25T20:32:02.349Z,21.50
2018-08-25T20:34:32.223Z,21.50
2018-08-25T20:37:02.473Z,21.46
2018-08-25T20:39:32.191Z,21.36
2018-08-25T20:42:01.507Z,21.48
2018-08-25T20:44:31.418Z,21.35
2018-08-25T20:47:01.143Z,21.25
2018-08-25T20:49:30.487Z,21.28
2018-08-25T21:09:20.410Z,21.04
2018-08-25T21:11:50.171Z,20.86
2018-08-25T21:14:19.949Z,20.93
2018-08-25T21:34:10.460Z,20.26
2018-08-25T21:36:40.070Z,20.27
2018-08-25T21:39:11.721Z,20.16
2018-08-25T21:41:41.452Z,20.20
2018-08-25T21:44:11.242Z,20.30
2018-08-25T21:46:41.145Z,20.15
2018-08-25T21:49:10.981Z,20.20
2018-08-25T21:51:40.752Z,20.31
2018-08-25T21:54:10.455Z,20.36
2018-08-25T21:56:39.877Z,20.27
2018-08-25T21:59:09.378Z,20.17
2018-08-25T22:01:43.146Z,20.06
2018-08-25T22:04:13.191Z,20.07
2018-08-25T22:06:42.933Z,19.97
2018-08-25T22:09:13.518Z,20.02
2018-08-25T22:11:43.150Z,20.04
2018-08-25T22:14:12.638Z,20.00
2018-08-25T22:16:42.589Z,19.91
2018-08-25T22:19:12.228Z,19.90
2018-08-25T22:21:41.662Z,19.85
2018-08-25T22:41:31.945Z,19.69
2018-08-25T22:44:01.682Z,19.79
2018-08-25T22:46:31.223Z,19.80
2018-08-25T22:49:01.302Z,19.78
2018-08-25T22:51:30.901Z,19.73
2018-08-25T22:54:00.710Z,19.70
2018-08-25T23:31:14.302Z,19.19
2018-08-25T23:33:43.942Z,18.93
2018-08-25T23:36:13.690Z,19.14
2018-08-25T23:38:44.045Z,19.03
2018-08-25T23:41:13.640Z,19.04
2018-08-25T23:43:43.033Z,19.01
2018-08-25T23:46:12.684Z,18.97
2018-08-25T23:48:42.257Z,18.95
2018-08-25T23:51:12.188Z,18.97
2018-08-25T23:53:41.723Z,18.98
2018-08-25T23:56:11.367Z,18.92
2018-08-25T23:58:40.991Z,18.89
